Terminal Aerodrome Forecast
Issued by NWS Sterling, VA

Current Version | Previous Version | Text Only | Print | Product List | Glossary On
Versions: 1 2 3 4 5 6 7 8 9 10 11 12 13 14 15 16 17 18 19 20 21 22 23 24 25 26 27
000
FTUS41 KLWX 191426 AAA
TAFDCA
TAF AMD
KDCA 191426Z 1914/2012 33006KT P6SM BKN030 BKN250
     FM191800 29006KT P6SM SCT030 BKN200
     FM192200 00000KT P6SM SCT030 BKN250
     FM201000 VRB03KT P6SM SCT050 OVC070=

USA.gov is the U.S. government's official web portal to all federal, state and local government web resources and services.